Weather at Bjorli Airfield

Public forecast

Using degrees Celsius for public forecast. Weather courtesy of forecast.io.

Closest aviation weather report (METAR) to Bjorli Airfield

Closest report is Molde Airport, Årø, 41.0 nm (75.9 km) NW.

2024/05/22 17:50 (retrieved 29 minutes ago)

ENML 221750Z 22005KT CAVOK 23/11 Q1014

Closest aviation forecast (TAF) to Bjorli Airfield

Closest forecast is Ørland Airport, 95.4 nm (176.7 km) NNE.

2024/05/22 18:36 (retrieved 0 seconds ago)

TAF ENOL 221700Z 2218/2318 34008KT CAVOK BECMG 2222/2301 13012KT BECMG 2311/2313 34010KT